createdAt,value
2019-05-22T00:03:41.955Z,19.57
2019-05-22T00:10:28.963Z,18.47
2019-05-22T00:17:15.674Z,18.93
2019-05-22T00:24:01.010Z,19.47
2019-05-22T00:30:49.637Z,18.33
2019-05-22T00:37:35.296Z,20.17
2019-05-22T00:44:22.366Z,20.53
2019-05-22T00:51:16.622Z,21.33
2019-05-22T00:58:08.464Z,20.83
2019-05-22T01:04:56.795Z,21.97
2019-05-22T01:11:45.264Z,21.13
2019-05-22T01:18:32.001Z,23.10
2019-05-22T01:25:20.840Z,23.33
2019-05-22T01:32:07.699Z,24.13
2019-05-22T01:38:56.093Z,24.17
2019-05-22T01:45:42.974Z,23.83
2019-05-22T01:52:28.506Z,25.73
2019-05-22T01:59:15.340Z,27.07
2019-05-22T02:06:01.583Z,25.90
2019-05-22T02:12:52.656Z,26.75
2019-05-22T02:19:39.008Z,25.53
2019-05-22T02:26:24.318Z,25.30
2019-05-22T02:33:11.336Z,24.20
2019-05-22T02:39:58.083Z,24.23
2019-05-22T02:46:43.361Z,23.80
2019-05-22T02:53:28.663Z,24.10
2019-05-22T03:00:16.952Z,24.67
2019-05-22T03:07:02.167Z,24.33
2019-05-22T03:14:01.131Z,24.30
2019-05-22T03:20:48.294Z,25.93
2019-05-22T03:27:45.797Z,25.33
2019-05-22T03:34:31.188Z,26.63
2019-05-22T03:41:18.205Z,25.68
2019-05-22T03:48:04.662Z,25.53
2019-05-22T03:54:49.610Z,26.10
2019-05-22T04:01:35.347Z,23.07
2019-05-22T04:08:25.542Z,24.33
2019-05-22T04:15:12.658Z,26.13
2019-05-22T04:21:58.094Z,25.43
2019-05-22T04:28:48.908Z,26.17
2019-05-22T04:35:35.120Z,24.27
2019-05-22T04:42:22.200Z,25.77
2019-05-22T04:49:08.721Z,25.80
2019-05-22T04:55:54.653Z,26.33
2019-05-22T05:02:40.500Z,24.33
2019-05-22T05:09:26.193Z,27.10
2019-05-22T05:16:11.883Z,25.37
2019-05-22T05:22:57.386Z,22.37
2019-05-22T05:29:42.803Z,20.40
2019-05-22T05:36:28.220Z,21.30
2019-05-22T05:43:15.294Z,19.63
2019-05-22T05:50:01.206Z,20.67
2019-05-22T05:56:50.302Z,21.47
2019-05-22T06:03:39.569Z,20.23
2019-05-22T06:10:28.254Z,20.50
2019-05-22T06:17:36.350Z,19.53
2019-05-22T06:24:33.110Z,17.97
2019-05-22T06:31:40.307Z,18.63
2019-05-22T06:38:48.770Z,17.82
2019-05-22T06:45:35.649Z,16.37
2019-05-22T06:52:22.538Z,18.90
2019-05-22T06:59:08.029Z,16.90
2019-05-22T07:05:54.776Z,16.83
2019-05-22T07:12:39.975Z,16.43
2019-05-22T07:19:25.286Z,17.47
2019-05-22T07:26:10.526Z,17.37
2019-05-22T07:32:55.762Z,17.13
2019-05-22T07:39:41.722Z,17.77
2019-05-22T07:46:30.508Z,17.97
2019-05-22T07:53:13.647Z,17.63
2019-05-22T07:59:59.155Z,17.70
2019-05-22T08:06:45.437Z,17.67
2019-05-22T08:13:32.306Z,17.90
2019-05-22T08:20:17.659Z,16.45
2019-05-22T08:27:04.867Z,13.95
2019-05-22T08:33:50.058Z,13.93
2019-05-22T08:40:36.740Z,12.85
2019-05-22T08:47:21.989Z,13.78
2019-05-22T08:54:07.633Z,13.25
2019-05-22T09:00:53.448Z,13.90
2019-05-22T09:07:40.100Z,13.22
2019-05-22T09:14:26.171Z,13.65
2019-05-22T09:21:12.204Z,12.10
2019-05-22T09:27:58.000Z,11.10
2019-05-22T09:34:44.417Z,10.53
2019-05-22T09:41:30.105Z,9.73
2019-05-22T09:48:15.704Z,10.10
2019-05-22T09:55:00.951Z,10.00
2019-05-22T10:01:45.964Z,10.72
2019-05-22T10:08:31.610Z,10.10
2019-05-22T10:15:17.257Z,8.73
2019-05-22T10:22:03.595Z,9.07
2019-05-22T10:28:49.109Z,8.15
2019-05-22T10:35:34.385Z,8.25
2019-05-22T10:42:25.191Z,7.87
2019-05-22T10:49:10.829Z,8.85
2019-05-22T10:55:56.289Z,8.53
2019-05-22T11:02:41.814Z,8.95
2019-05-22T11:09:28.812Z,8.98
2019-05-22T11:16:14.562Z,8.43
2019-05-22T11:23:01.015Z,8.45
2019-05-22T11:29:47.185Z,6.95
2019-05-22T11:36:32.258Z,7.90
2019-05-22T11:43:17.756Z,8.55
2019-05-22T11:50:03.008Z,6.37
2019-05-22T11:56:48.088Z,8.88
2019-05-22T12:03:34.715Z,8.75
2019-05-22T12:10:21.134Z,8.38
2019-05-22T12:17:07.893Z,9.63
2019-05-22T12:23:53.544Z,7.78
2019-05-22T12:30:39.421Z,6.30
2019-05-22T12:37:25.570Z,6.17
2019-05-22T12:44:11.146Z,7.35
2019-05-22T12:50:56.647Z,7.10
2019-05-22T12:57:41.916Z,6.58
2019-05-22T13:04:28.668Z,6.83
2019-05-22T13:11:14.936Z,6.35
2019-05-22T13:18:00.463Z,6.33
2019-05-22T13:24:46.012Z,6.28
2019-05-22T13:31:31.126Z,6.10
2019-05-22T13:38:18.030Z,5.83
2019-05-22T13:45:06.286Z,5.97
2019-05-22T13:51:51.739Z,5.72
2019-05-22T13:58:37.831Z,6.12
2019-05-22T14:05:25.796Z,4.30
2019-05-22T14:12:12.046Z,4.85
2019-05-22T14:18:57.067Z,4.65
2019-05-22T14:25:42.860Z,4.15
2019-05-22T14:32:30.046Z,3.75
2019-05-22T14:39:15.883Z,5.20
2019-05-22T14:46:01.155Z,4.78
2019-05-22T14:52:47.787Z,6.85
2019-05-22T14:59:35.230Z,5.20
2019-05-22T15:06:20.736Z,6.42
2019-05-22T15:13:06.113Z,5.28
2019-05-22T15:19:54.016Z,4.50
2019-05-22T15:26:39.250Z,4.10
2019-05-22T15:33:25.823Z,3.72
2019-05-22T15:40:11.986Z,4.35
2019-05-22T15:46:57.196Z,3.87
2019-05-22T15:53:46.028Z,4.53
2019-05-22T16:00:34.511Z,4.28
2019-05-22T16:07:21.372Z,4.17
2019-05-22T16:14:07.644Z,4.83
2019-05-22T16:20:54.511Z,4.60
2019-05-22T16:27:42.783Z,4.80
2019-05-22T16:34:30.015Z,4.72
2019-05-22T16:41:17.121Z,4.70
2019-05-22T16:48:03.473Z,3.83
2019-05-22T16:54:49.628Z,3.85
2019-05-22T17:01:56.191Z,3.95
2019-05-22T17:08:22.854Z,3.60
2019-05-22T17:15:10.811Z,4.03
2019-05-22T17:21:56.780Z,4.35
2019-05-22T17:28:41.956Z,4.10
2019-05-22T17:35:28.160Z,4.47
2019-05-22T17:42:16.455Z,3.75
2019-05-22T17:49:02.195Z,4.20
2019-05-22T17:55:48.906Z,4.55
2019-05-22T18:02:35.928Z,4.10
2019-05-22T18:09:21.351Z,4.80
2019-05-22T18:16:07.399Z,4.25
2019-05-22T18:22:52.689Z,4.58
2019-05-22T18:29:37.689Z,4.50
2019-05-22T18:36:22.781Z,4.80
2019-05-22T18:43:07.963Z,4.58
2019-05-22T18:49:53.139Z,4.37
2019-05-22T18:56:38.202Z,4.17
2019-05-22T19:03:23.458Z,4.33
2019-05-22T19:10:09.527Z,4.60
2019-05-22T19:16:54.723Z,4.35
2019-05-22T19:23:39.857Z,5.70
2019-05-22T19:30:26.319Z,5.40
2019-05-22T19:37:11.884Z,7.15
2019-05-22T19:43:57.495Z,5.27
2019-05-22T19:50:42.633Z,5.17
2019-05-22T19:57:28.027Z,5.87
2019-05-22T20:04:14.436Z,5.97
2019-05-22T20:10:59.443Z,6.73
2019-05-22T20:17:44.472Z,7.03
2019-05-22T20:24:29.958Z,8.03
2019-05-22T20:31:15.534Z,7.77
2019-05-22T20:38:01.739Z,9.27
2019-05-22T20:44:46.962Z,8.90
2019-05-22T20:51:32.290Z,8.67
2019-05-22T20:58:19.397Z,10.10
2019-05-22T21:05:12.437Z,9.50
2019-05-22T21:11:58.303Z,10.67
2019-05-22T21:18:45.610Z,11.17
2019-05-22T21:25:31.315Z,11.33
2019-05-22T21:32:17.084Z,10.40
2019-05-22T21:39:04.063Z,10.73
2019-05-22T21:45:49.390Z,11.87
2019-05-22T21:52:36.679Z,12.07
2019-05-22T21:59:21.687Z,11.50
2019-05-22T22:06:07.065Z,13.57
2019-05-22T22:12:53.601Z,12.43
2019-05-22T22:19:39.103Z,12.23
2019-05-22T22:26:26.550Z,13.07
2019-05-22T22:33:14.504Z,13.07
2019-05-22T22:40:01.584Z,13.40
2019-05-22T22:46:57.744Z,13.90
2019-05-22T22:53:43.695Z,13.03
2019-05-22T23:00:40.009Z,13.70
2019-05-22T23:07:28.875Z,12.63
2019-05-22T23:14:15.637Z,13.47
2019-05-22T23:21:00.600Z,12.97
2019-05-22T23:27:47.204Z,13.07
2019-05-22T23:34:32.565Z,13.73
2019-05-22T23:41:17.507Z,13.63
2019-05-22T23:48:07.200Z,14.13
2019-05-22T23:54:53.823Z,13.77
